sensor_id;sensor_type;location;lat;lon;timestamp;P1;durP1;ratioP1;P2;durP2;ratioP2
20527;SDS011;23612;50.894;10.700;2023-05-19T00:01:09;9.75;;;4.38;;
20527;SDS011;23612;50.894;10.700;2023-05-19T00:03:37;11.07;;;4.22;;
20527;SDS011;23612;50.894;10.700;2023-05-19T00:06:12;14.23;;;4.65;;
20527;SDS011;23612;50.894;10.700;2023-05-19T00:08:38;13.50;;;4.07;;
20527;SDS011;23612;50.894;10.700;2023-05-19T00:11:04;13.20;;;4.95;;
20527;SDS011;23612;50.894;10.700;2023-05-19T00:13:30;9.38;;;4.47;;
20527;SDS011;23612;50.894;10.700;2023-05-19T00:15:55;10.60;;;5.03;;
20527;SDS011;23612;50.894;10.700;2023-05-19T00:18:21;13.48;;;5.15;;
20527;SDS011;23612;50.894;10.700;2023-05-19T00:20:47;5.80;;;4.65;;
20527;SDS011;23612;50.894;10.700;2023-05-19T00:23:13;8.27;;;4.93;;
20527;SDS011;23612;50.894;10.700;2023-05-19T00:25:38;9.60;;;4.63;;
20527;SDS011;23612;50.894;10.700;2023-05-19T00:28:04;8.50;;;4.78;;
20527;SDS011;23612;50.894;10.700;2023-05-19T00:30:29;10.48;;;4.43;;
20527;SDS011;23612;50.894;10.700;2023-05-19T00:32:55;14.98;;;4.93;;
20527;SDS011;23612;50.894;10.700;2023-05-19T00:35:21;12.82;;;5.25;;
20527;SDS011;23612;50.894;10.700;2023-05-19T00:37:47;9.18;;;4.68;;
20527;SDS011;23612;50.894;10.700;2023-05-19T00:40:13;9.93;;;5.22;;
20527;SDS011;23612;50.894;10.700;2023-05-19T00:42:39;12.40;;;5.20;;
20527;SDS011;23612;50.894;10.700;2023-05-19T00:45:05;8.77;;;4.82;;
20527;SDS011;23612;50.894;10.700;2023-05-19T00:47:31;11.88;;;4.75;;
20527;SDS011;23612;50.894;10.700;2023-05-19T00:49:57;9.10;;;4.50;;
20527;SDS011;23612;50.894;10.700;2023-05-19T00:52:23;10.95;;;5.45;;
20527;SDS011;23612;50.894;10.700;2023-05-19T00:54:49;10.65;;;6.28;;
20527;SDS011;23612;50.894;10.700;2023-05-19T00:57:15;9.43;;;4.85;;
20527;SDS011;23612;50.894;10.700;2023-05-19T00:59:41;10.60;;;6.18;;
20527;SDS011;23612;50.894;10.700;2023-05-19T01:02:06;7.55;;;5.38;;
20527;SDS011;23612;50.894;10.700;2023-05-19T01:04:32;20.95;;;10.88;;
20527;SDS011;23612;50.894;10.700;2023-05-19T01:06:59;17.67;;;9.25;;
20527;SDS011;23612;50.894;10.700;2023-05-19T01:09:25;19.30;;;11.80;;
20527;SDS011;23612;50.894;10.700;2023-05-19T01:11:51;13.57;;;7.57;;
20527;SDS011;23612;50.894;10.700;2023-05-19T01:14:16;10.63;;;6.57;;
20527;SDS011;23612;50.894;10.700;2023-05-19T01:30:32;16.55;;;7.15;;
20527;SDS011;23612;50.894;10.700;2023-05-19T01:33:06;13.32;;;6.25;;
20527;SDS011;23612;50.894;10.700;2023-05-19T01:35:34;10.52;;;5.28;;
20527;SDS011;23612;50.894;10.700;2023-05-19T01:38:02;15.18;;;5.70;;
20527;SDS011;23612;50.894;10.700;2023-05-19T01:40:29;10.30;;;5.07;;
20527;SDS011;23612;50.894;10.700;2023-05-19T01:42:57;11.88;;;5.65;;
20527;SDS011;23612;50.894;10.700;2023-05-19T01:45:24;11.05;;;5.32;;
20527;SDS011;23612;50.894;10.700;2023-05-19T01:47:54;11.43;;;4.90;;
20527;SDS011;23612;50.894;10.700;2023-05-19T01:50:21;7.43;;;5.18;;
20527;SDS011;23612;50.894;10.700;2023-05-19T01:52:46;9.18;;;4.82;;
20527;SDS011;23612;50.894;10.700;2023-05-19T01:55:12;6.68;;;4.45;;
20527;SDS011;23612;50.894;10.700;2023-05-19T02:02:44;9.02;;;4.75;;
20527;SDS011;23612;50.894;10.700;2023-05-19T02:05:30;6.65;;;4.28;;
20527;SDS011;23612;50.894;10.700;2023-05-19T02:08:10;6.80;;;4.90;;
20527;SDS011;23612;50.894;10.700;2023-05-19T02:10:40;13.57;;;5.63;;
20527;SDS011;23612;50.894;10.700;2023-05-19T02:13:12;10.40;;;4.65;;
20527;SDS011;23612;50.894;10.700;2023-05-19T02:15:42;8.90;;;5.00;;
20527;SDS011;23612;50.894;10.700;2023-05-19T02:18:09;9.48;;;5.03;;
20527;SDS011;23612;50.894;10.700;2023-05-19T02:20:36;12.63;;;5.18;;
20527;SDS011;23612;50.894;10.700;2023-05-19T02:23:03;7.03;;;5.60;;
20527;SDS011;23612;50.894;10.700;2023-05-19T02:25:28;8.73;;;4.97;;
20527;SDS011;23612;50.894;10.700;2023-05-19T02:27:54;8.98;;;5.00;;
20527;SDS011;23612;50.894;10.700;2023-05-19T02:30:22;8.48;;;4.78;;
20527;SDS011;23612;50.894;10.700;2023-05-19T02:32:47;12.20;;;5.10;;
20527;SDS011;23612;50.894;10.700;2023-05-19T02:35:13;6.43;;;4.50;;
20527;SDS011;23612;50.894;10.700;2023-05-19T02:37:38;7.10;;;4.85;;
20527;SDS011;23612;50.894;10.700;2023-05-19T02:40:04;11.43;;;5.50;;
20527;SDS011;23612;50.894;10.700;2023-05-19T02:42:30;6.47;;;4.88;;
20527;SDS011;23612;50.894;10.700;2023-05-19T02:44:56;11.57;;;5.25;;
20527;SDS011;23612;50.894;10.700;2023-05-19T02:47:21;8.50;;;5.20;;
20527;SDS011;23612;50.894;10.700;2023-05-19T02:49:47;7.32;;;4.80;;
20527;SDS011;23612;50.894;10.700;2023-05-19T02:52:12;9.60;;;5.53;;
20527;SDS011;23612;50.894;10.700;2023-05-19T02:54:38;12.05;;;6.20;;
20527;SDS011;23612;50.894;10.700;2023-05-19T02:57:03;9.52;;;5.18;;
20527;SDS011;23612;50.894;10.700;2023-05-19T02:59:29;9.93;;;5.88;;
20527;SDS011;23612;50.894;10.700;2023-05-19T03:01:59;11.45;;;5.50;;
20527;SDS011;23612;50.894;10.700;2023-05-19T03:04:26;7.38;;;5.32;;
20527;SDS011;23612;50.894;10.700;2023-05-19T03:06:52;12.13;;;5.70;;
20527;SDS011;23612;50.894;10.700;2023-05-19T03:09:18;10.48;;;5.28;;
20527;SDS011;23612;50.894;10.700;2023-05-19T03:11:44;10.25;;;5.90;;
20527;SDS011;23612;50.894;10.700;2023-05-19T03:14:09;13.13;;;5.15;;
20527;SDS011;23612;50.894;10.700;2023-05-19T03:16:36;12.70;;;5.88;;
20527;SDS011;23612;50.894;10.700;2023-05-19T03:19:01;7.28;;;5.32;;
20527;SDS011;23612;50.894;10.700;2023-05-19T03:21:27;10.90;;;5.70;;
20527;SDS011;23612;50.894;10.700;2023-05-19T03:23:52;8.23;;;5.20;;
20527;SDS011;23612;50.894;10.700;2023-05-19T03:26:18;9.20;;;4.95;;
20527;SDS011;23612;50.894;10.700;2023-05-19T03:28:44;15.57;;;5.43;;
20527;SDS011;23612;50.894;10.700;2023-05-19T03:31:09;8.80;;;4.78;;
20527;SDS011;23612;50.894;10.700;2023-05-19T03:33:35;7.95;;;4.72;;
20527;SDS011;23612;50.894;10.700;2023-05-19T03:36:00;12.23;;;5.20;;
20527;SDS011;23612;50.894;10.700;2023-05-19T03:38:26;8.02;;;5.00;;
20527;SDS011;23612;50.894;10.700;2023-05-19T03:40:51;6.88;;;4.82;;
20527;SDS011;23612;50.894;10.700;2023-05-19T03:43:17;7.32;;;4.63;;
20527;SDS011;23612;50.894;10.700;2023-05-19T03:45:43;10.45;;;4.38;;
20527;SDS011;23612;50.894;10.700;2023-05-19T03:48:08;9.55;;;4.97;;
20527;SDS011;23612;50.894;10.700;2023-05-19T03:50:34;11.10;;;4.80;;
20527;SDS011;23612;50.894;10.700;2023-05-19T03:53:01;8.20;;;4.40;;
20527;SDS011;23612;50.894;10.700;2023-05-19T03:55:27;9.63;;;4.72;;
20527;SDS011;23612;50.894;10.700;2023-05-19T03:57:53;10.57;;;4.95;;
20527;SDS011;23612;50.894;10.700;2023-05-19T04:00:20;10.02;;;4.80;;
20527;SDS011;23612;50.894;10.700;2023-05-19T04:02:45;5.90;;;4.57;;
20527;SDS011;23612;50.894;10.700;2023-05-19T04:05:11;10.90;;;4.88;;
20527;SDS011;23612;50.894;10.700;2023-05-19T04:07:36;8.30;;;4.72;;
20527;SDS011;23612;50.894;10.700;2023-05-19T04:10:03;9.20;;;4.70;;
20527;SDS011;23612;50.894;10.700;2023-05-19T04:12:29;8.38;;;5.25;;
20527;SDS011;23612;50.894;10.700;2023-05-19T04:14:54;9.20;;;4.97;;
20527;SDS011;23612;50.894;10.700;2023-05-19T04:17:20;10.13;;;4.40;;
20527;SDS011;23612;50.894;10.700;2023-05-19T04:19:50;8.98;;;5.53;;
20527;SDS011;23612;50.894;10.700;2023-05-19T04:22:16;12.63;;;5.22;;
20527;SDS011;23612;50.894;10.700;2023-05-19T04:24:41;8.20;;;5.10;;
20527;SDS011;23612;50.894;10.700;2023-05-19T04:27:06;7.55;;;5.15;;
20527;SDS011;23612;50.894;10.700;2023-05-19T04:29:35;6.60;;;4.80;;
20527;SDS011;23612;50.894;10.700;2023-05-19T04:32:02;9.30;;;5.97;;
20527;SDS011;23612;50.894;10.700;2023-05-19T04:34:31;10.23;;;6.90;;
20527;SDS011;23612;50.894;10.700;2023-05-19T04:36:58;13.15;;;7.10;;
20527;SDS011;23612;50.894;10.700;2023-05-19T04:39:24;12.98;;;7.25;;
20527;SDS011;23612;50.894;10.700;2023-05-19T04:41:50;11.32;;;7.03;;
20527;SDS011;23612;50.894;10.700;2023-05-19T04:44:17;9.90;;;6.47;;
20527;SDS011;23612;50.894;10.700;2023-05-19T04:46:43;11.05;;;6.85;;
20527;SDS011;23612;50.894;10.700;2023-05-19T04:49:09;14.98;;;6.93;;
20527;SDS011;23612;50.894;10.700;2023-05-19T04:51:36;10.85;;;6.88;;
20527;SDS011;23612;50.894;10.700;2023-05-19T04:54:05;11.30;;;6.38;;
20527;SDS011;23612;50.894;10.700;2023-05-19T04:56:34;14.45;;;6.75;;
20527;SDS011;23612;50.894;10.700;2023-05-19T04:58:59;8.27;;;5.50;;
20527;SDS011;23612;50.894;10.700;2023-05-19T05:01:25;7.28;;;4.95;;
20527;SDS011;23612;50.894;10.700;2023-05-19T05:03:51;11.50;;;5.82;;
20527;SDS011;23612;50.894;10.700;2023-05-19T05:06:20;9.10;;;5.25;;
20527;SDS011;23612;50.894;10.700;2023-05-19T05:08:46;8.77;;;4.28;;
20527;SDS011;23612;50.894;10.700;2023-05-19T05:11:12;10.32;;;5.22;;
20527;SDS011;23612;50.894;10.700;2023-05-19T05:13:38;6.93;;;4.30;;
20527;SDS011;23612;50.894;10.700;2023-05-19T05:16:04;7.13;;;4.35;;
20527;SDS011;23612;50.894;10.700;2023-05-19T05:18:30;8.88;;;5.00;;
20527;SDS011;23612;50.894;10.700;2023-05-19T05:20:56;11.15;;;4.53;;
20527;SDS011;23612;50.894;10.700;2023-05-19T05:23:22;9.40;;;4.35;;
20527;SDS011;23612;50.894;10.700;2023-05-19T05:25:48;9.98;;;4.43;;
20527;SDS011;23612;50.894;10.700;2023-05-19T05:28:14;7.25;;;4.10;;
20527;SDS011;23612;50.894;10.700;2023-05-19T05:30:39;9.40;;;4.47;;
20527;SDS011;23612;50.894;10.700;2023-05-19T05:33:05;9.15;;;4.65;;
20527;SDS011;23612;50.894;10.700;2023-05-19T05:35:31;7.65;;;4.28;;
20527;SDS011;23612;50.894;10.700;2023-05-19T05:37:57;5.47;;;4.15;;
20527;SDS011;23612;50.894;10.700;2023-05-19T05:40:22;14.45;;;5.88;;
20527;SDS011;23612;50.894;10.700;2023-05-19T05:42:48;7.28;;;3.95;;
20527;SDS011;23612;50.894;10.700;2023-05-19T05:45:13;8.68;;;3.92;;
20527;SDS011;23612;50.894;10.700;2023-05-19T05:47:39;7.97;;;4.10;;
20527;SDS011;23612;50.894;10.700;2023-05-19T05:50:05;10.95;;;4.40;;
20527;SDS011;23612;50.894;10.700;2023-05-19T05:52:32;6.65;;;4.13;;
20527;SDS011;23612;50.894;10.700;2023-05-19T05:54:59;9.15;;;4.00;;
20527;SDS011;23612;50.894;10.700;2023-05-19T05:57:25;7.22;;;3.97;;
20527;SDS011;23612;50.894;10.700;2023-05-19T05:59:54;10.95;;;4.20;;
20527;SDS011;23612;50.894;10.700;2023-05-19T06:02:20;5.95;;;3.63;;
20527;SDS011;23612;50.894;10.700;2023-05-19T06:04:45;6.80;;;3.80;;
20527;SDS011;23612;50.894;10.700;2023-05-19T06:07:11;8.50;;;3.35;;
20527;SDS011;23612;50.894;10.700;2023-05-19T06:09:36;5.57;;;3.53;;
20527;SDS011;23612;50.894;10.700;2023-05-19T06:12:02;5.22;;;3.33;;
20527;SDS011;23612;50.894;10.700;2023-05-19T06:14:28;6.57;;;3.47;;
20527;SDS011;23612;50.894;10.700;2023-05-19T06:16:53;9.80;;;3.53;;
20527;SDS011;23612;50.894;10.700;2023-05-19T06:19:19;6.63;;;2.95;;
20527;SDS011;23612;50.894;10.700;2023-05-19T06:21:45;6.72;;;3.42;;
20527;SDS011;23612;50.894;10.700;2023-05-19T06:24:10;7.88;;;3.30;;
20527;SDS011;23612;50.894;10.700;2023-05-19T06:26:36;12.57;;;4.22;;
20527;SDS011;23612;50.894;10.700;2023-05-19T06:29:02;37.13;;;4.20;;
20527;SDS011;23612;50.894;10.700;2023-05-19T06:31:27;10.95;;;3.35;;
20527;SDS011;23612;50.894;10.700;2023-05-19T06:33:53;5.70;;;2.80;;
20527;SDS011;23612;50.894;10.700;2023-05-19T06:36:18;7.65;;;3.20;;
20527;SDS011;23612;50.894;10.700;2023-05-19T06:38:44;9.07;;;3.33;;
20527;SDS011;23612;50.894;10.700;2023-05-19T06:41:10;7.00;;;3.63;;
20527;SDS011;23612;50.894;10.700;2023-05-19T06:43:35;6.30;;;3.30;;
20527;SDS011;23612;50.894;10.700;2023-05-19T06:46:01;10.10;;;3.63;;
20527;SDS011;23612;50.894;10.700;2023-05-19T06:48:26;9.65;;;3.70;;
20527;SDS011;23612;50.894;10.700;2023-05-19T06:50:52;16.85;;;3.03;;
20527;SDS011;23612;50.894;10.700;2023-05-19T06:53:18;9.35;;;3.17;;
20527;SDS011;23612;50.894;10.700;2023-05-19T06:55:43;4.30;;;2.83;;
20527;SDS011;23612;50.894;10.700;2023-05-19T06:58:10;6.78;;;2.95;;
20527;SDS011;23612;50.894;10.700;2023-05-19T07:00:35;8.80;;;3.10;;
20527;SDS011;23612;50.894;10.700;2023-05-19T07:03:01;8.75;;;2.88;;
20527;SDS011;23612;50.894;10.700;2023-05-19T07:05:26;8.18;;;2.90;;
20527;SDS011;23612;50.894;10.700;2023-05-19T07:07:52;4.75;;;3.17;;
20527;SDS011;23612;50.894;10.700;2023-05-19T07:10:17;8.63;;;3.47;;
20527;SDS011;23612;50.894;10.700;2023-05-19T07:12:43;5.35;;;3.10;;
20527;SDS011;23612;50.894;10.700;2023-05-19T07:15:08;4.40;;;2.58;;
20527;SDS011;23612;50.894;10.700;2023-05-19T07:17:34;10.60;;;3.13;;
20527;SDS011;23612;50.894;10.700;2023-05-19T07:20:00;6.25;;;2.88;;
20527;SDS011;23612;50.894;10.700;2023-05-19T07:22:25;8.32;;;2.83;;
20527;SDS011;23612;50.894;10.700;2023-05-19T07:24:51;6.05;;;3.05;;
20527;SDS011;23612;50.894;10.700;2023-05-19T07:27:16;5.45;;;2.80;;
20527;SDS011;23612;50.894;10.700;2023-05-19T07:29:42;7.10;;;3.25;;
20527;SDS011;23612;50.894;10.700;2023-05-19T07:32:08;7.78;;;3.08;;
20527;SDS011;23612;50.894;10.700;2023-05-19T07:34:33;6.60;;;2.95;;
20527;SDS011;23612;50.894;10.700;2023-05-19T07:36:59;4.95;;;3.13;;
20527;SDS011;23612;50.894;10.700;2023-05-19T07:39:24;10.02;;;3.10;;
20527;SDS011;23612;50.894;10.700;2023-05-19T07:41:53;7.05;;;3.45;;
20527;SDS011;23612;50.894;10.700;2023-05-19T07:44:19;7.65;;;3.63;;
20527;SDS011;23612;50.894;10.700;2023-05-19T07:46:45;5.80;;;3.08;;
20527;SDS011;23612;50.894;10.700;2023-05-19T07:49:10;8.00;;;3.10;;
20527;SDS011;23612;50.894;10.700;2023-05-19T07:51:36;8.55;;;2.92;;
20527;SDS011;23612;50.894;10.700;2023-05-19T07:54:01;7.60;;;3.25;;
20527;SDS011;23612;50.894;10.700;2023-05-19T07:56:27;8.20;;;3.03;;
20527;SDS011;23612;50.894;10.700;2023-05-19T07:58:53;6.45;;;2.83;;
20527;SDS011;23612;50.894;10.700;2023-05-19T08:01:18;7.78;;;2.88;;
20527;SDS011;23612;50.894;10.700;2023-05-19T08:03:44;4.20;;;2.90;;
20527;SDS011;23612;50.894;10.700;2023-05-19T08:06:09;5.60;;;2.60;;
20527;SDS011;23612;50.894;10.700;2023-05-19T08:08:35;5.47;;;3.15;;
20527;SDS011;23612;50.894;10.700;2023-05-19T08:11:01;5.60;;;2.88;;
20527;SDS011;23612;50.894;10.700;2023-05-19T08:13:28;7.95;;;2.95;;
20527;SDS011;23612;50.894;10.700;2023-05-19T08:15:54;7.63;;;3.30;;
20527;SDS011;23612;50.894;10.700;2023-05-19T08:18:23;6.63;;;3.03;;
20527;SDS011;23612;50.894;10.700;2023-05-19T08:20:49;9.23;;;3.47;;
20527;SDS011;23612;50.894;10.700;2023-05-19T08:23:15;7.82;;;3.08;;
20527;SDS011;23612;50.894;10.700;2023-05-19T08:25:41;7.75;;;3.55;;
20527;SDS011;23612;50.894;10.700;2023-05-19T08:28:07;7.68;;;2.80;;
20527;SDS011;23612;50.894;10.700;2023-05-19T08:30:32;7.18;;;3.80;;
20527;SDS011;23612;50.894;10.700;2023-05-19T08:32:58;6.18;;;2.95;;
20527;SDS011;23612;50.894;10.700;2023-05-19T08:35:23;6.78;;;3.20;;
20527;SDS011;23612;50.894;10.700;2023-05-19T08:37:49;4.13;;;2.90;;
20527;SDS011;23612;50.894;10.700;2023-05-19T08:40:15;8.40;;;3.33;;
20527;SDS011;23612;50.894;10.700;2023-05-19T08:42:42;8.23;;;3.33;;
20527;SDS011;23612;50.894;10.700;2023-05-19T08:45:08;6.63;;;3.55;;
20527;SDS011;23612;50.894;10.700;2023-05-19T08:47:34;8.25;;;3.05;;
20527;SDS011;23612;50.894;10.700;2023-05-19T08:50:02;5.78;;;2.95;;
20527;SDS011;23612;50.894;10.700;2023-05-19T08:57:57;15.85;;;3.92;;
20527;SDS011;23612;50.894;10.700;2023-05-19T09:00:25;13.55;;;4.22;;
20527;SDS011;23612;50.894;10.700;2023-05-19T09:02:51;6.38;;;3.45;;
20527;SDS011;23612;50.894;10.700;2023-05-19T09:05:17;6.43;;;4.00;;
20527;SDS011;23612;50.894;10.700;2023-05-19T09:07:43;4.75;;;3.33;;
20527;SDS011;23612;50.894;10.700;2023-05-19T09:10:10;6.32;;;3.38;;
20527;SDS011;23612;50.894;10.700;2023-05-19T09:12:43;10.75;;;3.40;;
20527;SDS011;23612;50.894;10.700;2023-05-19T09:15:10;4.68;;;3.38;;
20527;SDS011;23612;50.894;10.700;2023-05-19T09:17:36;6.32;;;3.35;;
20527;SDS011;23612;50.894;10.700;2023-05-19T09:20:03;4.28;;;3.10;;
20527;SDS011;23612;50.894;10.700;2023-05-19T09:22:32;6.32;;;3.40;;
20527;SDS011;23612;50.894;10.700;2023-05-19T09:25:01;6.30;;;3.53;;
20527;SDS011;23612;50.894;10.700;2023-05-19T09:27:26;5.55;;;3.28;;
20527;SDS011;23612;50.894;10.700;2023-05-19T09:30:05;15.40;;;3.17;;
20527;SDS011;23612;50.894;10.700;2023-05-19T09:32:32;6.78;;;3.35;;
20527;SDS011;23612;50.894;10.700;2023-05-19T09:35:00;7.43;;;3.50;;
20527;SDS011;23612;50.894;10.700;2023-05-19T09:37:27;5.63;;;3.08;;
20527;SDS011;23612;50.894;10.700;2023-05-19T09:39:53;4.70;;;2.83;;
20527;SDS011;23612;50.894;10.700;2023-05-19T09:42:25;6.07;;;2.63;;
20527;SDS011;23612;50.894;10.700;2023-05-19T09:44:58;3.58;;;2.50;;
20527;SDS011;23612;50.894;10.700;2023-05-19T09:47:31;3.10;;;2.17;;
20527;SDS011;23612;50.894;10.700;2023-05-19T09:49:58;5.15;;;2.80;;
20527;SDS011;23612;50.894;10.700;2023-05-19T09:52:23;5.40;;;2.78;;
20527;SDS011;23612;50.894;10.700;2023-05-19T09:54:49;5.13;;;2.58;;
20527;SDS011;23612;50.894;10.700;2023-05-19T09:57:15;3.42;;;2.50;;
20527;SDS011;23612;50.894;10.700;2023-05-19T09:59:41;4.03;;;2.50;;
20527;SDS011;23612;50.894;10.700;2023-05-19T10:02:11;3.47;;;2.40;;
20527;SDS011;23612;50.894;10.700;2023-05-19T10:04:41;4.80;;;2.53;;
20527;SDS011;23612;50.894;10.700;2023-05-19T10:07:07;3.50;;;2.70;;
20527;SDS011;23612;50.894;10.700;2023-05-19T10:09:36;10.13;;;3.33;;
20527;SDS011;23612;50.894;10.700;2023-05-19T10:12:03;7.60;;;3.35;;
20527;SDS011;23612;50.894;10.700;2023-05-19T10:14:29;5.00;;;2.78;;
20527;SDS011;23612;50.894;10.700;2023-05-19T10:16:55;3.20;;;2.72;;
20527;SDS011;23612;50.894;10.700;2023-05-19T10:19:22;5.70;;;3.20;;
20527;SDS011;23612;50.894;10.700;2023-05-19T10:21:49;3.88;;;2.03;;
20527;SDS011;23612;50.894;10.700;2023-05-19T10:24:16;3.08;;;2.60;;
20527;SDS011;23612;50.894;10.700;2023-05-19T10:26:43;5.28;;;2.53;;
20527;SDS011;23612;50.894;10.700;2023-05-19T10:29:13;4.20;;;2.45;;
20527;SDS011;23612;50.894;10.700;2023-05-19T10:31:43;8.93;;;2.40;;
20527;SDS011;23612;50.894;10.700;2023-05-19T10:34:20;7.25;;;2.58;;
20527;SDS011;23612;50.894;10.700;2023-05-19T10:37:04;10.82;;;2.22;;
20527;SDS011;23612;50.894;10.700;2023-05-19T10:39:41;6.50;;;2.13;;
20527;SDS011;23612;50.894;10.700;2023-05-19T10:44:37;3.00;;;2.40;;
20527;SDS011;23612;50.894;10.700;2023-05-19T10:47:23;4.32;;;2.33;;
20527;SDS011;23612;50.894;10.700;2023-05-19T10:49:52;3.05;;;2.25;;
20527;SDS011;23612;50.894;10.700;2023-05-19T10:52:19;2.78;;;2.28;;
20527;SDS011;23612;50.894;10.700;2023-05-19T10:54:53;2.58;;;2.10;;
20527;SDS011;23612;50.894;10.700;2023-05-19T10:57:20;2.53;;;2.00;;
20527;SDS011;23612;50.894;10.700;2023-05-19T10:59:55;9.30;;;2.30;;
20527;SDS011;23612;50.894;10.700;2023-05-19T11:02:35;6.00;;;2.15;;
20527;SDS011;23612;50.894;10.700;2023-05-19T11:05:06;6.50;;;2.15;;
20527;SDS011;23612;50.894;10.700;2023-05-19T11:07:33;2.55;;;2.33;;
20527;SDS011;23612;50.894;10.700;2023-05-19T11:09:58;4.55;;;2.47;;
20527;SDS011;23612;50.894;10.700;2023-05-19T11:12:29;7.68;;;2.40;;
20527;SDS011;23612;50.894;10.700;2023-05-19T11:15:10;3.60;;;2.20;;
20527;SDS011;23612;50.894;10.700;2023-05-19T11:17:38;5.93;;;2.38;;
20527;SDS011;23612;50.894;10.700;2023-05-19T11:20:06;6.72;;;2.78;;
20527;SDS011;23612;50.894;10.700;2023-05-19T11:22:35;3.28;;;2.00;;
20527;SDS011;23612;50.894;10.700;2023-05-19T11:25:01;4.90;;;2.30;;
20527;SDS011;23612;50.894;10.700;2023-05-19T11:27:28;4.53;;;2.13;;
20527;SDS011;23612;50.894;10.700;2023-05-19T11:30:00;75.38;;;5.93;;
20527;SDS011;23612;50.894;10.700;2023-05-19T11:32:31;4.78;;;2.72;;
20527;SDS011;23612;50.894;10.700;2023-05-19T11:34:58;2.78;;;2.38;;
20527;SDS011;23612;50.894;10.700;2023-05-19T11:37:25;4.28;;;2.15;;
20527;SDS011;23612;50.894;10.700;2023-05-19T11:39:52;3.00;;;1.77;;
20527;SDS011;23612;50.894;10.700;2023-05-19T11:42:18;6.63;;;2.05;;
20527;SDS011;23612;50.894;10.700;2023-05-19T11:44:43;8.27;;;2.20;;
20527;SDS011;23612;50.894;10.700;2023-05-19T11:47:10;11.32;;;2.00;;
20527;SDS011;23612;50.894;10.700;2023-05-19T11:49:36;4.75;;;2.15;;
20527;SDS011;23612;50.894;10.700;2023-05-19T11:52:02;2.38;;;1.67;;
20527;SDS011;23612;50.894;10.700;2023-05-19T11:54:31;3.17;;;2.00;;
20527;SDS011;23612;50.894;10.700;2023-05-19T11:56:59;14.25;;;2.47;;
20527;SDS011;23612;50.894;10.700;2023-05-19T11:59:33;3.60;;;1.80;;
20527;SDS011;23612;50.894;10.700;2023-05-19T12:02:00;7.05;;;1.58;;
20527;SDS011;23612;50.894;10.700;2023-05-19T12:04:30;4.00;;;2.03;;
20527;SDS011;23612;50.894;10.700;2023-05-19T12:06:55;10.32;;;1.80;;
20527;SDS011;23612;50.894;10.700;2023-05-19T12:09:21;2.47;;;1.65;;
20527;SDS011;23612;50.894;10.700;2023-05-19T12:11:49;2.08;;;1.90;;
20527;SDS011;23612;50.894;10.700;2023-05-19T12:14:15;3.95;;;1.90;;
20527;SDS011;23612;50.894;10.700;2023-05-19T12:16:41;4.05;;;1.90;;
20527;SDS011;23612;50.894;10.700;2023-05-19T12:19:07;4.53;;;2.40;;
20527;SDS011;23612;50.894;10.700;2023-05-19T12:21:33;9.43;;;2.20;;
20527;SDS011;23612;50.894;10.700;2023-05-19T12:23:59;7.93;;;2.10;;
20527;SDS011;23612;50.894;10.700;2023-05-19T12:26:25;9.70;;;2.08;;
20527;SDS011;23612;50.894;10.700;2023-05-19T12:28:51;3.80;;;2.35;;
20527;SDS011;23612;50.894;10.700;2023-05-19T12:31:17;4.43;;;2.00;;
20527;SDS011;23612;50.894;10.700;2023-05-19T12:33:44;6.40;;;1.98;;
20527;SDS011;23612;50.894;10.700;2023-05-19T12:36:15;3.50;;;1.98;;
20527;SDS011;23612;50.894;10.700;2023-05-19T12:38:42;10.25;;;2.00;;
20527;SDS011;23612;50.894;10.700;2023-05-19T12:41:09;5.03;;;2.10;;
20527;SDS011;23612;50.894;10.700;2023-05-19T12:43:36;5.10;;;1.30;;
20527;SDS011;23612;50.894;10.700;2023-05-19T12:46:11;7.47;;;1.70;;
20527;SDS011;23612;50.894;10.700;2023-05-19T12:48:44;10.85;;;1.95;;
20527;SDS011;23612;50.894;10.700;2023-05-19T12:51:14;6.15;;;2.50;;
20527;SDS011;23612;50.894;10.700;2023-05-19T12:53:41;3.28;;;1.70;;
20527;SDS011;23612;50.894;10.700;2023-05-19T12:56:10;2.88;;;1.65;;
20527;SDS011;23612;50.894;10.700;2023-05-19T12:58:38;8.07;;;3.22;;
20527;SDS011;23612;50.894;10.700;2023-05-19T13:01:04;14.75;;;2.67;;
20527;SDS011;23612;50.894;10.700;2023-05-19T13:03:31;2.97;;;2.50;;
20527;SDS011;23612;50.894;10.700;2023-05-19T13:05:56;4.00;;;2.25;;
20527;SDS011;23612;50.894;10.700;2023-05-19T13:08:23;2.40;;;2.20;;
20527;SDS011;23612;50.894;10.700;2023-05-19T13:10:49;6.22;;;2.40;;
20527;SDS011;23612;50.894;10.700;2023-05-19T13:13:15;17.35;;;2.60;;
20527;SDS011;23612;50.894;10.700;2023-05-19T13:15:41;5.35;;;2.90;;
20527;SDS011;23612;50.894;10.700;2023-05-19T13:18:09;7.90;;;3.20;;
20527;SDS011;23612;50.894;10.700;2023-05-19T13:20:36;92.30;;;7.20;;
20527;SDS011;23612;50.894;10.700;2023-05-19T13:23:02;7.05;;;2.45;;
20527;SDS011;23612;50.894;10.700;2023-05-19T13:25:28;4.85;;;2.58;;
20527;SDS011;23612;50.894;10.700;2023-05-19T13:27:54;8.27;;;2.55;;
20527;SDS011;23612;50.894;10.700;2023-05-19T13:30:20;7.07;;;2.67;;
20527;SDS011;23612;50.894;10.700;2023-05-19T13:32:46;5.80;;;2.58;;
20527;SDS011;23612;50.894;10.700;2023-05-19T13:35:12;8.95;;;2.42;;
20527;SDS011;23612;50.894;10.700;2023-05-19T13:37:39;4.47;;;2.78;;
20527;SDS011;23612;50.894;10.700;2023-05-19T13:40:06;7.50;;;2.40;;
20527;SDS011;23612;50.894;10.700;2023-05-19T13:42:32;5.60;;;2.35;;
20527;SDS011;23612;50.894;10.700;2023-05-19T13:44:58;3.20;;;2.10;;
20527;SDS011;23612;50.894;10.700;2023-05-19T13:47:24;5.88;;;2.25;;
20527;SDS011;23612;50.894;10.700;2023-05-19T13:49:50;6.05;;;2.13;;
20527;SDS011;23612;50.894;10.700;2023-05-19T13:52:16;4.38;;;2.30;;
20527;SDS011;23612;50.894;10.700;2023-05-19T13:54:41;8.15;;;2.28;;
20527;SDS011;23612;50.894;10.700;2023-05-19T13:57:07;7.22;;;2.25;;
20527;SDS011;23612;50.894;10.700;2023-05-19T13:59:33;6.47;;;2.55;;
20527;SDS011;23612;50.894;10.700;2023-05-19T14:01:59;15.63;;;2.92;;
20527;SDS011;23612;50.894;10.700;2023-05-19T14:04:26;10.60;;;2.75;;
20527;SDS011;23612;50.894;10.700;2023-05-19T14:06:52;6.15;;;2.60;;
20527;SDS011;23612;50.894;10.700;2023-05-19T14:09:17;4.03;;;2.10;;
20527;SDS011;23612;50.894;10.700;2023-05-19T14:11:43;6.90;;;3.25;;
20527;SDS011;23612;50.894;10.700;2023-05-19T14:14:09;6.90;;;3.20;;
20527;SDS011;23612;50.894;10.700;2023-05-19T14:16:35;11.88;;;3.03;;
20527;SDS011;23612;50.894;10.700;2023-05-19T14:19:00;6.65;;;1.70;;
20527;SDS011;23612;50.894;10.700;2023-05-19T14:21:26;2.40;;;2.03;;
20527;SDS011;23612;50.894;10.700;2023-05-19T14:23:52;4.18;;;1.80;;
20527;SDS011;23612;50.894;10.700;2023-05-19T14:26:18;4.93;;;2.17;;
20527;SDS011;23612;50.894;10.700;2023-05-19T14:28:43;3.60;;;2.08;;
20527;SDS011;23612;50.894;10.700;2023-05-19T14:31:10;5.63;;;2.03;;
20527;SDS011;23612;50.894;10.700;2023-05-19T14:33:36;4.38;;;2.22;;
20527;SDS011;23612;50.894;10.700;2023-05-19T14:36:01;4.57;;;2.15;;
20527;SDS011;23612;50.894;10.700;2023-05-19T14:38:29;3.55;;;2.28;;
20527;SDS011;23612;50.894;10.700;2023-05-19T14:40:54;20.90;;;2.85;;
20527;SDS011;23612;50.894;10.700;2023-05-19T14:43:20;3.85;;;1.88;;
20527;SDS011;23612;50.894;10.700;2023-05-19T14:45:45;4.20;;;2.15;;
20527;SDS011;23612;50.894;10.700;2023-05-19T14:48:11;6.35;;;2.25;;
20527;SDS011;23612;50.894;10.700;2023-05-19T14:50:37;6.47;;;2.30;;
20527;SDS011;23612;50.894;10.700;2023-05-19T14:53:03;5.50;;;2.17;;
20527;SDS011;23612;50.894;10.700;2023-05-19T14:55:28;2.90;;;2.10;;